Time;durP1;ratioP1;P1;durP2;ratioP2;P2;SDS_P1;SDS_P2;PMS_P1;PMS_P2;Temp;Humidity;BMP_temperature;BMP_pressure;BME280_temperature;BME280_humidity;BME280_pressure;Samples;Min_cycle;Max_cycle;Signal;HPM_P1;HPM_P2
2022/04/16 08:46:22;;;;;;;5.30;3.70;;;16.90;99.90;;;;;;4777627;23;20265;-71
2022/04/16 08:48:50;;;;;;;5.40;3.60;;;16.60;99.90;;;;;;4914727;29;20218;-69
2022/04/16 08:51:17;;;;;;;5.60;3.17;;;16.70;99.90;;;;;;4918187;29;20209;-75
2022/04/16 08:53:44;;;;;;;8.37;4.03;;;16.90;99.90;;;;;;4918096;29;20229;-75
2022/04/16 08:56:11;;;;;;;5.43;3.17;;;16.70;99.90;;;;;;4905070;29;20202;-70
2022/04/16 08:58:38;;;;;;;5.83;3.30;;;17.00;99.90;;;;;;4898131;29;20226;-74
2022/04/16 09:01:05;;;;;;;5.40;3.30;;;16.80;99.80;;;;;;4899389;29;20207;-75
2022/04/16 09:03:34;;;;;;;6.37;3.00;;;16.70;99.90;;;;;;4898906;29;20253;-70
2022/04/16 09:06:01;;;;;;;5.67;3.00;;;16.70;99.90;;;;;;4898994;29;20244;-69
2022/04/16 09:08:29;;;;;;;5.23;3.03;;;17.30;99.70;;;;;;4898688;29;20210;-73
2022/04/16 09:11:06;;;;;;;5.87;3.90;;;17.10;99.40;;;;;;4899072;29;20255;-70
2022/04/16 09:13:33;;;;;;;5.10;2.73;;;16.80;99.30;;;;;;4898682;29;20620;-70
2022/04/16 09:16:04;;;;;;;5.47;2.70;;;16.40;99.40;;;;;;4898859;29;20238;-74
2022/04/16 09:18:31;;;;;;;4.77;2.93;;;16.50;99.60;;;;;;4898690;29;20214;-77
2022/04/16 09:20:59;;;;;;;5.13;3.30;;;16.80;99.50;;;;;;4898791;29;20222;-71
2022/04/16 09:23:26;;;;;;;5.33;2.90;;;17.00;99.90;;;;;;4898034;29;20230;-73
2022/04/16 09:25:53;;;;;;;5.07;2.70;;;17.00;99.90;;;;;;4898835;29;20242;-69
2022/04/16 09:28:22;;;;;;;5.00;2.90;;;16.80;99.00;;;;;;4899117;29;20222;-68
2022/04/16 09:30:50;;;;;;;4.20;2.77;;;16.60;98.80;;;;;;4898846;29;20206;-69
2022/04/16 09:33:19;;;;;;;4.77;2.80;;;16.60;99.50;;;;;;4898253;29;20237;-69
2022/04/16 09:35:46;;;;;;;4.47;2.83;;;16.70;99.90;;;;;;4898897;29;20213;-69
2022/04/16 09:38:15;;;;;;;4.73;2.60;;;16.70;99.30;;;;;;4898409;29;20210;-72
2022/04/16 09:40:45;;;;;;;4.13;2.00;;;16.70;98.90;;;;;;4898443;29;20278;-78
2022/04/16 09:43:12;;;;;;;3.87;2.40;;;16.50;98.10;;;;;;4898364;29;20834;-74
2022/04/16 09:45:40;;;;;;;2.50;1.80;;;16.50;98.90;;;;;;4898266;29;20237;-69
2022/04/16 09:48:11;;;;;;;2.37;1.60;;;16.10;97.70;;;;;;4898013;29;20217;-69
2022/04/16 09:50:39;;;;;;;3.73;1.83;;;15.60;98.10;;;;;;4898074;29;20213;-69
2022/04/16 09:53:07;;;;;;;3.63;1.70;;;15.50;99.10;;;;;;4898427;29;20245;-70
2022/04/16 09:55:37;;;;;;;3.20;2.10;;;15.50;98.80;;;;;;4898143;29;20215;-71
2022/04/16 09:58:05;;;;;;;4.20;2.07;;;15.50;99.20;;;;;;4898091;29;20218;-76
2022/04/16 10:00:34;;;;;;;3.80;2.23;;;15.60;99.40;;;;;;4897664;29;20210;-70
2022/04/16 10:03:01;;;;;;;4.37;2.27;;;15.50;99.40;;;;;;4898014;29;20607;-68
2022/04/16 10:13:34;;;;;;;3.13;1.90;;;15.30;98.70;;;;;;4924551;23;20284;-69
2022/04/16 10:24:01;;;;;;;4.60;2.33;;;15.50;99.90;;;;;;4943451;23;20237;-68
2022/04/16 10:26:38;;;;;;;3.40;2.20;;;15.50;99.40;;;;;;4915935;29;20292;-70
2022/04/16 10:29:06;;;;;;;5.10;2.70;;;15.50;99.20;;;;;;4915873;29;20221;-72
2022/04/16 10:31:36;;;;;;;5.73;2.60;;;15.50;99.10;;;;;;4897692;29;20222;-72
2022/04/16 10:34:09;;;;;;;5.67;2.70;;;15.50;99.40;;;;;;4897016;29;20210;-70
2022/04/16 10:36:38;;;;;;;3.90;2.53;;;15.40;99.90;;;;;;4897025;29;20683;-75
2022/04/16 10:39:15;;;;;;;3.50;2.43;;;15.40;99.30;;;;;;4896492;29;20230;-69
2022/04/16 10:41:53;;;;;;;4.30;2.50;;;15.50;99.90;;;;;;4897028;29;20556;-73
2022/04/16 10:44:22;;;;;;;4.10;2.53;;;15.60;99.50;;;;;;4897243;29;20242;-72
2022/04/16 10:46:50;;;;;;;5.97;2.70;;;15.70;99.40;;;;;;4897276;29;20245;-74
2022/04/16 10:49:18;;;;;;;5.97;2.70;;;15.80;99.90;;;;;;4897047;29;20237;-70
2022/04/16 10:51:46;;;;;;;3.80;2.00;;;16.00;99.00;;;;;;4897528;29;20218;-70
2022/04/16 10:54:14;;;;;;;4.77;2.17;;;16.10;99.00;;;;;;4897758;29;20599;-69
2022/04/16 10:56:45;;;;;;;5.43;2.20;;;16.10;97.80;;;;;;4897211;29;20571;-70
2022/04/16 10:59:12;;;;;;;4.00;2.03;;;16.00;97.50;;;;;;4897148;29;20234;-70
2022/04/16 11:01:52;;;;;;;4.50;2.67;;;16.10;98.70;;;;;;4897243;29;20215;-70
2022/04/16 11:04:19;;;;;;;6.87;2.87;;;15.90;99.30;;;;;;4897449;29;20214;-70
2022/04/16 11:06:48;;;;;;;5.53;2.80;;;16.00;98.50;;;;;;4897077;29;20238;-72
2022/04/16 11:09:18;;;;;;;3.57;2.03;;;16.00;99.00;;;;;;4897425;29;20230;-71
2022/04/16 11:11:50;;;;;;;4.07;2.23;;;15.80;98.30;;;;;;4897408;29;20218;-70
2022/04/16 11:14:18;;;;;;;4.57;2.23;;;15.70;98.90;;;;;;4897540;29;20746;-70
2022/04/16 11:16:47;;;;;;;2.97;1.90;;;15.70;99.10;;;;;;4897506;29;20210;-72
2022/04/16 11:19:15;;;;;;;4.73;2.37;;;15.50;98.50;;;;;;4897219;29;20232;-73
2022/04/16 11:21:42;;;;;;;3.13;2.00;;;15.50;98.20;;;;;;4898534;29;20214;-70
2022/04/16 11:24:10;;;;;;;3.97;2.30;;;15.50;98.90;;;;;;4901123;29;20222;-70
2022/04/16 11:35:08;;;;;;;3.40;2.00;;;15.70;98.30;;;;;;4820309;29;20229;-70
2022/04/16 11:37:35;;;;;;;4.27;2.53;;;15.90;98.40;;;;;;4823631;29;20224;-72
2022/04/16 11:40:03;;;;;;;4.17;2.20;;;15.90;97.60;;;;;;4856463;29;20234;-70
2022/04/16 11:42:31;;;;;;;3.57;2.10;;;16.00;98.30;;;;;;4899899;29;20207;-72
2022/04/16 11:44:58;;;;;;;4.10;2.27;;;16.00;98.10;;;;;;4899610;29;20222;-70
2022/04/16 11:47:28;;;;;;;3.43;2.03;;;16.00;97.50;;;;;;4899075;29;20703;-72
2022/04/16 11:49:56;;;;;;;3.00;1.77;;;15.90;97.80;;;;;;4899234;29;20282;-78
2022/04/16 11:52:24;;;;;;;5.00;2.23;;;15.90;97.30;;;;;;4898702;29;20214;-72
2022/04/16 11:55:01;;;;;;;4.53;2.77;;;15.80;97.70;;;;;;4899369;29;20218;-78
2022/04/16 11:57:27;;;;;;;3.90;2.27;;;16.00;98.40;;;;;;4899558;29;20221;-73
2022/04/16 11:59:58;;;;;;;4.73;2.67;;;16.20;97.90;;;;;;4898957;29;20333;-75
2022/04/16 12:02:32;;;;;;;4.27;2.73;;;16.30;97.50;;;;;;4899008;29;20687;-73
2022/04/16 12:05:11;;;;;;;6.33;2.60;;;16.30;97.20;;;;;;4898772;29;20210;-73
2022/04/16 12:07:41;;;;;;;4.03;2.47;;;16.30;96.80;;;;;;4899047;29;20234;-71
2022/04/16 12:10:08;;;;;;;4.07;2.37;;;16.20;97.50;;;;;;4898607;29;20704;-72
2022/04/16 12:12:48;;;;;;;4.40;2.43;;;16.20;98.10;;;;;;4899477;29;20219;-72
2022/04/16 12:15:22;;;;;;;4.43;2.50;;;16.30;97.20;;;;;;4900283;29;20218;-71
2022/04/16 12:17:51;;;;;;;6.20;2.97;;;16.10;97.40;;;;;;4900283;29;20225;-71
2022/04/16 12:20:20;;;;;;;3.77;2.63;;;16.30;97.80;;;;;;4900065;29;20237;-70
2022/04/16 12:22:52;;;;;;;5.00;3.00;;;16.40;97.40;;;;;;4899825;29;20225;-70
2022/04/16 12:25:21;;;;;;;4.63;2.50;;;16.40;97.70;;;;;;4899858;29;20210;-71
2022/04/16 12:27:49;;;;;;;3.97;2.37;;;16.60;97.50;;;;;;4900058;29;20234;-70
2022/04/16 12:30:19;;;;;;;4.43;2.90;;;16.50;97.10;;;;;;4899872;29;20235;-73
2022/04/16 12:32:57;;;;;;;3.27;2.37;;;16.30;96.80;;;;;;4899952;29;20216;-71
2022/04/16 12:35:25;;;;;;;5.90;2.63;;;16.40;97.50;;;;;;4899653;29;20218;-72
2022/04/16 12:37:53;;;;;;;3.67;2.53;;;16.20;97.10;;;;;;4899854;29;20222;-78
2022/04/16 12:40:20;;;;;;;3.97;2.43;;;16.50;97.40;;;;;;4899932;29;20232;-71
2022/04/16 12:42:47;;;;;;;4.77;2.40;;;16.50;96.80;;;;;;4899797;29;20297;-75
2022/04/16 12:45:14;;;;;;;4.57;2.30;;;16.50;97.00;;;;;;4899772;29;20210;-73
2022/04/16 12:47:41;;;;;;;3.77;2.37;;;16.60;97.00;;;;;;4899142;29;20234;-71
2022/04/16 12:50:10;;;;;;;5.17;2.90;;;16.80;97.30;;;;;;4899214;29;20235;-71
2022/04/16 12:52:38;;;;;;;3.97;2.70;;;16.80;96.40;;;;;;4899682;29;20214;-75
2022/04/16 12:55:05;;;;;;;6.43;3.00;;;16.70;96.50;;;;;;4899597;29;20241;-71
2022/04/16 12:57:32;;;;;;;4.93;3.07;;;16.80;96.90;;;;;;4899562;29;20225;-72
2022/04/16 12:59:59;;;;;;;4.23;2.43;;;16.80;96.90;;;;;;4899223;29;20234;-76
2022/04/16 13:02:26;;;;;;;3.80;2.57;;;16.90;96.00;;;;;;4899045;29;20217;-69
2022/04/16 13:04:54;;;;;;;4.70;3.07;;;16.80;96.40;;;;;;4899174;29;20225;-69
2022/04/16 13:07:23;;;;;;;4.33;2.90;;;16.90;96.40;;;;;;4899145;29;20242;-70
2022/04/16 13:09:50;;;;;;;3.90;2.50;;;17.00;96.50;;;;;;4899009;29;20257;-73
2022/04/16 13:12:19;;;;;;;4.67;2.63;;;17.20;96.20;;;;;;4899453;29;20222;-77
2022/04/16 13:14:46;;;;;;;4.50;2.57;;;17.00;96.00;;;;;;4899177;29;20210;-75
2022/04/16 13:17:13;;;;;;;4.50;2.80;;;17.00;96.40;;;;;;4898855;29;20215;-72
2022/04/16 13:19:40;;;;;;;4.23;2.77;;;17.10;96.20;;;;;;4899024;29;20241;-75
2022/04/16 13:22:07;;;;;;;4.43;2.70;;;17.10;96.60;;;;;;4898865;29;20228;-71
2022/04/16 13:24:36;;;;;;;4.70;2.33;;;17.20;96.20;;;;;;4898629;29;20213;-71
2022/04/16 13:27:05;;;;;;;6.63;2.63;;;17.10;96.30;;;;;;4898785;29;20253;-73
2022/04/16 13:29:33;;;;;;;4.10;2.97;;;17.30;96.60;;;;;;4898411;29;20270;-72
2022/04/16 13:32:00;;;;;;;5.20;3.07;;;17.20;95.50;;;;;;4899074;29;20334;-71
2022/04/16 13:34:27;;;;;;;5.30;2.90;;;17.30;96.00;;;;;;4898804;29;20237;-71
2022/04/16 13:36:53;;;;;;;4.73;3.10;;;17.30;95.50;;;;;;4898882;29;20221;-72
2022/04/16 13:42:06;;;;;;;5.83;2.90;;;17.10;96.10;;;;;;4898708;29;20213;-74
2022/04/16 13:44:33;;;;;;;4.10;2.80;;;17.20;96.40;;;;;;4898367;29;20211;-74
2022/04/16 13:47:00;;;;;;;5.23;2.83;;;17.40;95.40;;;;;;4898426;29;20234;-71
2022/04/16 13:49:27;;;;;;;4.90;2.80;;;17.60;95.20;;;;;;4898429;29;20240;-71
2022/04/16 13:51:54;;;;;;;5.07;2.33;;;17.60;94.60;;;;;;4898545;29;20213;-72
2022/04/16 13:54:21;;;;;;;5.70;2.73;;;17.60;95.00;;;;;;4898333;29;20218;-72
2022/04/16 13:56:48;;;;;;;3.80;2.60;;;17.40;94.50;;;;;;4898249;29;20682;-72
2022/04/16 13:59:16;;;;;;;3.73;2.13;;;17.30;94.70;;;;;;4898210;29;20237;-71
2022/04/16 14:01:43;;;;;;;5.23;2.67;;;17.30;94.80;;;;;;4898097;29;20714;-72
2022/04/16 14:04:10;;;;;;;3.83;2.03;;;17.10;94.50;;;;;;4898094;29;20206;-71
2022/04/16 14:06:37;;;;;;;3.13;1.97;;;17.30;94.20;;;;;;4898259;29;20238;-72
2022/04/16 14:09:03;;;;;;;2.93;1.80;;;17.40;93.50;;;;;;4898008;29;20823;-72
2022/04/16 14:11:30;;;;;;;3.20;1.90;;;17.50;93.60;;;;;;4898054;29;20210;-72
2022/04/16 14:13:57;;;;;;;3.80;2.20;;;17.80;93.60;;;;;;4898487;29;20214;-73
2022/04/16 14:16:25;;;;;;;5.63;2.00;;;17.70;93.50;;;;;;4898179;29;20217;-70
2022/04/16 14:18:52;;;;;;;3.00;1.87;;;17.80;93.90;;;;;;4897785;29;20246;-72
2022/04/16 14:21:19;;;;;;;2.87;1.90;;;17.70;94.20;;;;;;4897873;29;20578;-71
2022/04/16 14:23:46;;;;;;;2.87;1.80;;;17.80;93.20;;;;;;4897928;29;20214;-72
2022/04/16 14:26:13;;;;;;;4.20;2.10;;;17.80;93.70;;;;;;4898042;29;20214;-71
2022/04/16 14:28:40;;;;;;;2.13;1.77;;;17.80;92.80;;;;;;4898015;29;20221;-70
2022/04/16 14:31:09;;;;;;;3.53;2.10;;;17.70;93.80;;;;;;4897823;29;20255;-74
2022/04/16 14:33:38;;;;;;;2.93;1.50;;;17.80;94.10;;;;;;4897769;29;20260;-71
2022/04/16 14:36:06;;;;;;;4.77;1.97;;;17.90;94.00;;;;;;4897632;29;20198;-71
2022/04/16 14:38:35;;;;;;;4.10;2.07;;;18.10;93.60;;;;;;4897551;29;20270;-71
2022/04/16 14:41:10;;;;;;;3.37;1.43;;;18.00;93.30;;;;;;4897608;29;20226;-71
2022/04/16 14:43:38;;;;;;;2.73;1.53;;;18.00;92.90;;;;;;4897215;29;20214;-73
2022/04/16 14:46:05;;;;;;;2.53;1.60;;;18.00;92.60;;;;;;4897390;29;20206;-74
2022/04/16 14:48:32;;;;;;;2.90;2.07;;;17.80;92.80;;;;;;4897472;29;20249;-71
2022/04/16 14:51:02;;;;;;;3.73;2.30;;;17.80;93.10;;;;;;4897546;29;20317;-71
2022/04/16 14:53:29;;;;;;;3.23;2.03;;;17.70;93.10;;;;;;4897595;29;20246;-71
2022/04/16 14:55:56;;;;;;;3.57;1.83;;;17.70;93.10;;;;;;4897642;29;20210;-71
2022/04/16 14:58:23;;;;;;;2.77;1.60;;;17.80;93.00;;;;;;4901169;29;20663;-71
2022/04/16 15:00:50;;;;;;;2.67;1.77;;;18.10;93.00;;;;;;4901468;29;20576;-71
2022/04/16 15:03:17;;;;;;;3.03;2.03;;;17.90;92.70;;;;;;4901213;29;20210;-72
2022/04/16 15:05:43;;;;;;;4.20;2.27;;;17.80;92.70;;;;;;4901559;29;20210;-71
2022/04/16 15:08:12;;;;;;;2.20;1.60;;;17.80;92.70;;;;;;4901443;29;20242;-70
2022/04/16 15:10:38;;;;;;;3.67;1.80;;;17.70;92.20;;;;;;4901182;29;20234;-70
2022/04/16 15:13:05;;;;;;;3.63;1.90;;;17.80;93.40;;;;;;4901491;29;20210;-70
2022/04/16 15:15:32;;;;;;;2.50;1.90;;;17.70;92.50;;;;;;4901121;29;20217;-71
2022/04/16 15:17:59;;;;;;;2.47;1.60;;;17.60;93.50;;;;;;4900826;29;20218;-72
2022/04/16 15:20:27;;;;;;;2.47;1.53;;;17.60;92.80;;;;;;4900954;29;20702;-71
2022/04/16 15:22:54;;;;;;;2.67;1.83;;;17.70;92.60;;;;;;4900754;29;20229;-71
2022/04/16 15:25:22;;;;;;;2.97;1.77;;;17.70;91.90;;;;;;4900689;29;20242;-72
2022/04/16 15:27:49;;;;;;;3.23;1.90;;;17.70;92.40;;;;;;4900850;29;20325;-74
2022/04/16 15:30:16;;;;;;;2.33;1.60;;;17.60;92.70;;;;;;4900809;29;20230;-72
